Darlington, Indiana
Current Conditions -  °F | °C
As of 9:35 AM on Saturday 25 Oct 2014 (Local Time) from KFKR Reporting Station
Clear Clear  
Wind Chill: 56°   Ceiling: Unl
Heat Index: 56°   Visibility: 7mi
Dew Point: 56°   Wind: 7mph
Humidity: 100%   Direction: 220°SW
Pressure: 29.98"   Gusts: NA
Location:  40.11°N, 86.77°W
Report Text: KFKR 251335Z AUTO 22006KT 7SM CLR 13/13 A2998 RMK AO2 T01330133
Loading
Personal Weather Stations






























Interactive Weather Map
Tropical Storm Tracking
New forecast layout! Learn more

10-Day Weather Forecast

Advertisements
Track Severe Weather on mobile